Terminal Aerodrome Forecast
Issued by NWS Paducah, KY

Home | Current Version | Previous Version | Text Only | Print | Product List | Glossary On
Versions: 1 2 3 4 5 6 7 8 9 10 11 12 13 14 15 16 17 18 19 20
000
FTUS43 KPAH 291100
TAFPAH
TAF
KPAH 291132Z 2912/3012 22012KT P6SM SKC
     FM291500 28015G28KT P6SM OVC022
     FM300000 33009KT P6SM BKN030
     FM300700 34005KT P6SM SCT035=

USA.gov is the U.S. government's official web portal to all federal, state and local government web resources and services.